sensor_id;sensor_type;location;lat;lon;timestamp;P1;durP1;ratioP1;P2;durP2;ratioP2
20928;SDS011;21895;47.072;15.132;2023-05-10T00:00:39;7.73;;;4.87;;
20928;SDS011;21895;47.072;15.132;2023-05-10T00:03:05;11.83;;;5.87;;
20928;SDS011;21895;47.072;15.132;2023-05-10T00:05:32;31.37;;;5.87;;
20928;SDS011;21895;47.072;15.132;2023-05-10T00:07:59;10.30;;;5.60;;
20928;SDS011;21895;47.072;15.132;2023-05-10T00:10:25;8.20;;;5.23;;
20928;SDS011;21895;47.072;15.132;2023-05-10T00:12:52;10.67;;;5.00;;
20928;SDS011;21895;47.072;15.132;2023-05-10T00:15:18;8.23;;;5.40;;
20928;SDS011;21895;47.072;15.132;2023-05-10T00:17:45;9.10;;;4.67;;
20928;SDS011;21895;47.072;15.132;2023-05-10T00:20:11;8.17;;;5.27;;
20928;SDS011;21895;47.072;15.132;2023-05-10T00:22:38;10.60;;;5.33;;
20928;SDS011;21895;47.072;15.132;2023-05-10T00:25:05;12.57;;;6.13;;
20928;SDS011;21895;47.072;15.132;2023-05-10T00:27:33;13.00;;;5.20;;
20928;SDS011;21895;47.072;15.132;2023-05-10T00:29:59;10.83;;;5.50;;
20928;SDS011;21895;47.072;15.132;2023-05-10T00:32:26;11.27;;;4.93;;
20928;SDS011;21895;47.072;15.132;2023-05-10T00:34:52;9.70;;;5.30;;
20928;SDS011;21895;47.072;15.132;2023-05-10T00:37:19;49.33;;;6.37;;
20928;SDS011;21895;47.072;15.132;2023-05-10T00:39:45;23.00;;;5.93;;
20928;SDS011;21895;47.072;15.132;2023-05-10T00:42:12;9.27;;;5.80;;
20928;SDS011;21895;47.072;15.132;2023-05-10T00:44:38;9.70;;;5.37;;
20928;SDS011;21895;47.072;15.132;2023-05-10T00:47:05;10.43;;;5.23;;
20928;SDS011;21895;47.072;15.132;2023-05-10T00:49:31;10.00;;;5.00;;
20928;SDS011;21895;47.072;15.132;2023-05-10T00:51:58;11.27;;;5.40;;
20928;SDS011;21895;47.072;15.132;2023-05-10T00:54:25;8.43;;;5.40;;
20928;SDS011;21895;47.072;15.132;2023-05-10T00:56:51;10.63;;;4.57;;
20928;SDS011;21895;47.072;15.132;2023-05-10T00:59:18;8.23;;;5.30;;
20928;SDS011;21895;47.072;15.132;2023-05-10T01:01:46;9.13;;;5.20;;
20928;SDS011;21895;47.072;15.132;2023-05-10T01:04:13;15.50;;;5.53;;
20928;SDS011;21895;47.072;15.132;2023-05-10T01:06:40;21.73;;;5.63;;
20928;SDS011;21895;47.072;15.132;2023-05-10T01:09:08;16.00;;;4.83;;
20928;SDS011;21895;47.072;15.132;2023-05-10T01:11:37;7.73;;;4.60;;
20928;SDS011;21895;47.072;15.132;2023-05-10T01:14:05;6.03;;;4.20;;
20928;SDS011;21895;47.072;15.132;2023-05-10T01:16:33;6.03;;;4.30;;
20928;SDS011;21895;47.072;15.132;2023-05-10T01:19:08;9.50;;;4.60;;
20928;SDS011;21895;47.072;15.132;2023-05-10T01:22:25;51.13;;;5.23;;
20928;SDS011;21895;47.072;15.132;2023-05-10T01:35:58;8.97;;;4.70;;
20928;SDS011;21895;47.072;15.132;2023-05-10T01:39:01;9.97;;;4.80;;
20928;SDS011;21895;47.072;15.132;2023-05-10T01:41:44;7.90;;;4.60;;
20928;SDS011;21895;47.072;15.132;2023-05-10T01:47:25;11.10;;;4.47;;
20928;SDS011;21895;47.072;15.132;2023-05-10T01:50:06;11.97;;;5.10;;
20928;SDS011;21895;47.072;15.132;2023-05-10T01:52:44;11.53;;;4.93;;
20928;SDS011;21895;47.072;15.132;2023-05-10T01:55:20;15.27;;;5.37;;
20928;SDS011;21895;47.072;15.132;2023-05-10T01:57:57;9.93;;;4.30;;
20928;SDS011;21895;47.072;15.132;2023-05-10T02:00:31;11.20;;;4.70;;
20928;SDS011;21895;47.072;15.132;2023-05-10T02:03:03;8.80;;;5.10;;
20928;SDS011;21895;47.072;15.132;2023-05-10T02:05:34;8.43;;;4.77;;
20928;SDS011;21895;47.072;15.132;2023-05-10T02:08:03;10.73;;;4.90;;
20928;SDS011;21895;47.072;15.132;2023-05-10T02:10:34;8.77;;;4.87;;
20928;SDS011;21895;47.072;15.132;2023-05-10T02:13:02;8.30;;;5.10;;
20928;SDS011;21895;47.072;15.132;2023-05-10T02:15:31;15.27;;;4.97;;
20928;SDS011;21895;47.072;15.132;2023-05-10T02:18:00;12.00;;;5.07;;
20928;SDS011;21895;47.072;15.132;2023-05-10T02:20:31;10.37;;;4.90;;
20928;SDS011;21895;47.072;15.132;2023-05-10T02:22:59;7.70;;;3.90;;
20928;SDS011;21895;47.072;15.132;2023-05-10T02:25:28;7.60;;;3.67;;
20928;SDS011;21895;47.072;15.132;2023-05-10T02:27:58;4.97;;;3.87;;
20928;SDS011;21895;47.072;15.132;2023-05-10T02:30:31;6.43;;;3.90;;
20928;SDS011;21895;47.072;15.132;2023-05-10T02:33:00;8.93;;;4.13;;
20928;SDS011;21895;47.072;15.132;2023-05-10T02:35:30;4.63;;;3.40;;
20928;SDS011;21895;47.072;15.132;2023-05-10T02:37:58;6.20;;;4.00;;
20928;SDS011;21895;47.072;15.132;2023-05-10T02:40:27;9.70;;;3.80;;
20928;SDS011;21895;47.072;15.132;2023-05-10T02:42:54;5.23;;;3.60;;
20928;SDS011;21895;47.072;15.132;2023-05-10T02:45:26;6.77;;;3.50;;
20928;SDS011;21895;47.072;15.132;2023-05-10T02:47:56;5.93;;;3.30;;
20928;SDS011;21895;47.072;15.132;2023-05-10T02:50:25;6.80;;;3.57;;
20928;SDS011;21895;47.072;15.132;2023-05-10T02:53:03;9.83;;;3.53;;
20928;SDS011;21895;47.072;15.132;2023-05-10T02:55:44;5.47;;;3.40;;
20928;SDS011;21895;47.072;15.132;2023-05-10T02:58:16;5.40;;;3.70;;
20928;SDS011;21895;47.072;15.132;2023-05-10T03:00:44;5.47;;;3.63;;
20928;SDS011;21895;47.072;15.132;2023-05-10T03:03:12;7.90;;;3.83;;
20928;SDS011;21895;47.072;15.132;2023-05-10T03:05:38;9.00;;;3.77;;
20928;SDS011;21895;47.072;15.132;2023-05-10T03:08:05;7.07;;;3.57;;
20928;SDS011;21895;47.072;15.132;2023-05-10T03:10:32;5.73;;;3.30;;
20928;SDS011;21895;47.072;15.132;2023-05-10T03:13:19;6.43;;;3.80;;
20928;SDS011;21895;47.072;15.132;2023-05-10T03:16:42;8.03;;;4.37;;
20928;SDS011;21895;47.072;15.132;2023-05-10T03:19:17;12.17;;;4.07;;
20928;SDS011;21895;47.072;15.132;2023-05-10T03:22:21;8.97;;;3.63;;
20928;SDS011;21895;47.072;15.132;2023-05-10T03:24:58;5.80;;;3.93;;
20928;SDS011;21895;47.072;15.132;2023-05-10T03:27:32;72.70;;;4.77;;
20928;SDS011;21895;47.072;15.132;2023-05-10T03:30:01;94.10;;;4.70;;
20928;SDS011;21895;47.072;15.132;2023-05-10T03:32:30;23.17;;;3.93;;
20928;SDS011;21895;47.072;15.132;2023-05-10T03:34:59;6.33;;;3.80;;
20928;SDS011;21895;47.072;15.132;2023-05-10T03:37:26;5.73;;;3.40;;
20928;SDS011;21895;47.072;15.132;2023-05-10T03:39:53;6.13;;;4.03;;
20928;SDS011;21895;47.072;15.132;2023-05-10T03:42:19;8.57;;;4.00;;
20928;SDS011;21895;47.072;15.132;2023-05-10T03:44:46;5.97;;;3.73;;
20928;SDS011;21895;47.072;15.132;2023-05-10T03:47:14;4.70;;;3.37;;
20928;SDS011;21895;47.072;15.132;2023-05-10T03:49:41;5.53;;;3.50;;
20928;SDS011;21895;47.072;15.132;2023-05-10T03:52:07;10.40;;;3.20;;
20928;SDS011;21895;47.072;15.132;2023-05-10T03:54:34;5.47;;;3.67;;
20928;SDS011;21895;47.072;15.132;2023-05-10T03:57:00;16.33;;;4.13;;
20928;SDS011;21895;47.072;15.132;2023-05-10T03:59:28;13.67;;;3.30;;
20928;SDS011;21895;47.072;15.132;2023-05-10T04:01:54;11.43;;;3.57;;
20928;SDS011;21895;47.072;15.132;2023-05-10T04:04:21;18.50;;;3.70;;
20928;SDS011;21895;47.072;15.132;2023-05-10T04:06:48;5.97;;;3.50;;
20928;SDS011;21895;47.072;15.132;2023-05-10T04:09:15;7.27;;;3.37;;
20928;SDS011;21895;47.072;15.132;2023-05-10T04:11:44;6.53;;;3.67;;
20928;SDS011;21895;47.072;15.132;2023-05-10T04:14:10;8.47;;;3.90;;
20928;SDS011;21895;47.072;15.132;2023-05-10T04:16:37;3.73;;;2.87;;
20928;SDS011;21895;47.072;15.132;2023-05-10T04:19:03;6.93;;;3.50;;
20928;SDS011;21895;47.072;15.132;2023-05-10T04:21:30;5.80;;;3.60;;
20928;SDS011;21895;47.072;15.132;2023-05-10T04:23:56;6.57;;;3.23;;
20928;SDS011;21895;47.072;15.132;2023-05-10T04:26:23;4.80;;;3.40;;
20928;SDS011;21895;47.072;15.132;2023-05-10T04:28:50;17.90;;;3.63;;
20928;SDS011;21895;47.072;15.132;2023-05-10T04:31:17;6.77;;;3.77;;
20928;SDS011;21895;47.072;15.132;2023-05-10T04:33:44;5.73;;;3.23;;
20928;SDS011;21895;47.072;15.132;2023-05-10T04:36:11;7.47;;;3.37;;
20928;SDS011;21895;47.072;15.132;2023-05-10T04:38:38;5.27;;;3.47;;
20928;SDS011;21895;47.072;15.132;2023-05-10T04:41:08;9.10;;;4.13;;
20928;SDS011;21895;47.072;15.132;2023-05-10T04:43:38;9.20;;;3.73;;
20928;SDS011;21895;47.072;15.132;2023-05-10T04:46:05;6.03;;;3.80;;
20928;SDS011;21895;47.072;15.132;2023-05-10T04:48:32;9.37;;;3.87;;
20928;SDS011;21895;47.072;15.132;2023-05-10T04:50:59;10.63;;;4.50;;
20928;SDS011;21895;47.072;15.132;2023-05-10T04:53:25;9.90;;;4.10;;
20928;SDS011;21895;47.072;15.132;2023-05-10T04:55:52;8.23;;;4.13;;
20928;SDS011;21895;47.072;15.132;2023-05-10T04:58:19;6.63;;;3.83;;
20928;SDS011;21895;47.072;15.132;2023-05-10T05:00:45;5.23;;;3.50;;
20928;SDS011;21895;47.072;15.132;2023-05-10T05:03:12;8.40;;;4.30;;
20928;SDS011;21895;47.072;15.132;2023-05-10T05:05:38;8.60;;;3.87;;
20928;SDS011;21895;47.072;15.132;2023-05-10T05:08:05;8.50;;;4.17;;
20928;SDS011;21895;47.072;15.132;2023-05-10T05:10:32;8.90;;;3.97;;
20928;SDS011;21895;47.072;15.132;2023-05-10T05:12:58;5.93;;;3.80;;
20928;SDS011;21895;47.072;15.132;2023-05-10T05:15:25;7.00;;;4.23;;
20928;SDS011;21895;47.072;15.132;2023-05-10T05:17:51;9.50;;;4.23;;
20928;SDS011;21895;47.072;15.132;2023-05-10T05:20:18;12.17;;;4.30;;
20928;SDS011;21895;47.072;15.132;2023-05-10T05:22:45;6.70;;;4.50;;
20928;SDS011;21895;47.072;15.132;2023-05-10T05:25:11;8.93;;;4.23;;
20928;SDS011;21895;47.072;15.132;2023-05-10T05:27:38;5.70;;;3.73;;
20928;SDS011;21895;47.072;15.132;2023-05-10T05:30:05;8.60;;;4.23;;
20928;SDS011;21895;47.072;15.132;2023-05-10T05:32:33;7.87;;;3.87;;
20928;SDS011;21895;47.072;15.132;2023-05-10T05:35:00;4.67;;;3.47;;
20928;SDS011;21895;47.072;15.132;2023-05-10T05:37:27;18.90;;;4.27;;
20928;SDS011;21895;47.072;15.132;2023-05-10T05:39:53;7.20;;;4.43;;
20928;SDS011;21895;47.072;15.132;2023-05-10T05:42:20;7.80;;;4.40;;
20928;SDS011;21895;47.072;15.132;2023-05-10T05:44:46;11.20;;;4.27;;
20928;SDS011;21895;47.072;15.132;2023-05-10T05:47:13;9.73;;;3.97;;
20928;SDS011;21895;47.072;15.132;2023-05-10T05:49:39;9.40;;;4.13;;
20928;SDS011;21895;47.072;15.132;2023-05-10T05:52:06;11.07;;;4.47;;
20928;SDS011;21895;47.072;15.132;2023-05-10T05:54:32;8.40;;;4.33;;
20928;SDS011;21895;47.072;15.132;2023-05-10T05:56:59;8.17;;;4.27;;
20928;SDS011;21895;47.072;15.132;2023-05-10T05:59:26;11.05;;;4.80;;
20928;SDS011;21895;47.072;15.132;2023-05-10T06:01:53;12.30;;;4.70;;
20928;SDS011;21895;47.072;15.132;2023-05-10T06:04:20;8.90;;;5.00;;
20928;SDS011;21895;47.072;15.132;2023-05-10T06:06:47;6.90;;;4.63;;
20928;SDS011;21895;47.072;15.132;2023-05-10T06:09:13;8.43;;;4.67;;
20928;SDS011;21895;47.072;15.132;2023-05-10T06:11:40;13.60;;;4.43;;
20928;SDS011;21895;47.072;15.132;2023-05-10T06:14:06;7.03;;;4.80;;
20928;SDS011;21895;47.072;15.132;2023-05-10T06:16:33;18.63;;;5.20;;
20928;SDS011;21895;47.072;15.132;2023-05-10T06:19:00;6.15;;;4.40;;
20928;SDS011;21895;47.072;15.132;2023-05-10T06:21:27;6.85;;;4.22;;
20928;SDS011;21895;47.072;15.132;2023-05-10T06:23:54;12.02;;;4.45;;
20928;SDS011;21895;47.072;15.132;2023-05-10T06:26:20;7.55;;;3.70;;
20928;SDS011;21895;47.072;15.132;2023-05-10T06:28:47;9.18;;;4.40;;
20928;SDS011;21895;47.072;15.132;2023-05-10T06:31:14;6.03;;;4.20;;
20928;SDS011;21895;47.072;15.132;2023-05-10T06:33:41;10.67;;;4.10;;
20928;SDS011;21895;47.072;15.132;2023-05-10T06:36:08;10.35;;;4.97;;
20928;SDS011;21895;47.072;15.132;2023-05-10T06:38:34;6.28;;;4.50;;
20928;SDS011;21895;47.072;15.132;2023-05-10T06:41:01;6.73;;;4.43;;
20928;SDS011;21895;47.072;15.132;2023-05-10T06:43:27;6.57;;;4.53;;
20928;SDS011;21895;47.072;15.132;2023-05-10T06:45:54;9.27;;;4.60;;
20928;SDS011;21895;47.072;15.132;2023-05-10T06:48:20;11.87;;;5.17;;
20928;SDS011;21895;47.072;15.132;2023-05-10T06:50:47;7.97;;;5.23;;
20928;SDS011;21895;47.072;15.132;2023-05-10T06:53:13;7.70;;;4.87;;
20928;SDS011;21895;47.072;15.132;2023-05-10T06:55:40;9.00;;;4.70;;
20928;SDS011;21895;47.072;15.132;2023-05-10T06:58:07;8.50;;;4.82;;
20928;SDS011;21895;47.072;15.132;2023-05-10T07:00:34;10.88;;;4.72;;
20928;SDS011;21895;47.072;15.132;2023-05-10T07:03:00;7.50;;;4.27;;
20928;SDS011;21895;47.072;15.132;2023-05-10T07:05:27;6.07;;;4.75;;
20928;SDS011;21895;47.072;15.132;2023-05-10T07:07:55;10.00;;;4.57;;
20928;SDS011;21895;47.072;15.132;2023-05-10T07:10:21;6.62;;;4.20;;
20928;SDS011;21895;47.072;15.132;2023-05-10T07:12:48;8.75;;;4.40;;
20928;SDS011;21895;47.072;15.132;2023-05-10T07:15:15;7.37;;;4.50;;
20928;SDS011;21895;47.072;15.132;2023-05-10T07:17:41;9.93;;;4.70;;
20928;SDS011;21895;47.072;15.132;2023-05-10T07:20:11;6.55;;;4.50;;
20928;SDS011;21895;47.072;15.132;2023-05-10T07:22:38;7.80;;;4.45;;
20928;SDS011;21895;47.072;15.132;2023-05-10T07:25:05;7.32;;;4.60;;
20928;SDS011;21895;47.072;15.132;2023-05-10T07:27:32;8.98;;;4.78;;
20928;SDS011;21895;47.072;15.132;2023-05-10T07:29:58;8.38;;;4.45;;
20928;SDS011;21895;47.072;15.132;2023-05-10T07:32:27;6.30;;;4.47;;
20928;SDS011;21895;47.072;15.132;2023-05-10T07:34:53;5.37;;;4.05;;
20928;SDS011;21895;47.072;15.132;2023-05-10T07:37:20;7.90;;;4.87;;
20928;SDS011;21895;47.072;15.132;2023-05-10T07:39:46;8.98;;;4.70;;
20928;SDS011;21895;47.072;15.132;2023-05-10T07:42:13;8.23;;;4.68;;
20928;SDS011;21895;47.072;15.132;2023-05-10T07:44:39;9.23;;;4.90;;
20928;SDS011;21895;47.072;15.132;2023-05-10T07:47:06;8.57;;;4.53;;
20928;SDS011;21895;47.072;15.132;2023-05-10T07:49:32;8.33;;;4.73;;
20928;SDS011;21895;47.072;15.132;2023-05-10T07:51:59;6.05;;;4.18;;
20928;SDS011;21895;47.072;15.132;2023-05-10T07:54:25;5.93;;;4.25;;
20928;SDS011;21895;47.072;15.132;2023-05-10T07:56:52;6.80;;;4.43;;
20928;SDS011;21895;47.072;15.132;2023-05-10T07:59:19;8.40;;;5.15;;
20928;SDS011;21895;47.072;15.132;2023-05-10T08:01:45;6.68;;;4.72;;
20928;SDS011;21895;47.072;15.132;2023-05-10T08:04:12;10.00;;;4.75;;
20928;SDS011;21895;47.072;15.132;2023-05-10T08:06:39;12.65;;;4.85;;
20928;SDS011;21895;47.072;15.132;2023-05-10T08:09:05;11.27;;;5.90;;
20928;SDS011;21895;47.072;15.132;2023-05-10T08:11:32;14.05;;;5.05;;
20928;SDS011;21895;47.072;15.132;2023-05-10T08:14:00;15.23;;;5.10;;
20928;SDS011;21895;47.072;15.132;2023-05-10T08:16:27;13.48;;;5.03;;
20928;SDS011;21895;47.072;15.132;2023-05-10T08:18:54;10.77;;;5.50;;
20928;SDS011;21895;47.072;15.132;2023-05-10T08:21:20;18.70;;;5.53;;
20928;SDS011;21895;47.072;15.132;2023-05-10T08:23:47;9.38;;;4.80;;
20928;SDS011;21895;47.072;15.132;2023-05-10T08:26:14;7.47;;;4.57;;
20928;SDS011;21895;47.072;15.132;2023-05-10T08:28:41;9.15;;;4.50;;
20928;SDS011;21895;47.072;15.132;2023-05-10T08:31:07;7.25;;;4.80;;
20928;SDS011;21895;47.072;15.132;2023-05-10T08:33:34;7.32;;;4.50;;
20928;SDS011;21895;47.072;15.132;2023-05-10T08:36:00;7.62;;;4.78;;
20928;SDS011;21895;47.072;15.132;2023-05-10T08:38:27;6.35;;;4.12;;
20928;SDS011;21895;47.072;15.132;2023-05-10T08:40:54;9.52;;;5.05;;
20928;SDS011;21895;47.072;15.132;2023-05-10T08:43:28;7.55;;;4.87;;
20928;SDS011;21895;47.072;15.132;2023-05-10T08:45:55;9.27;;;4.60;;
20928;SDS011;21895;47.072;15.132;2023-05-10T08:48:26;9.00;;;4.75;;
20928;SDS011;21895;47.072;15.132;2023-05-10T08:50:56;7.90;;;4.75;;
20928;SDS011;21895;47.072;15.132;2023-05-10T08:53:42;7.20;;;4.57;;
20928;SDS011;21895;47.072;15.132;2023-05-10T08:56:10;5.55;;;3.83;;
20928;SDS011;21895;47.072;15.132;2023-05-10T08:58:37;7.40;;;5.00;;
20928;SDS011;21895;47.072;15.132;2023-05-10T09:01:04;8.75;;;4.40;;
20928;SDS011;21895;47.072;15.132;2023-05-10T09:03:31;24.15;;;5.57;;
20928;SDS011;21895;47.072;15.132;2023-05-10T09:05:58;10.88;;;4.65;;
20928;SDS011;21895;47.072;15.132;2023-05-10T09:08:25;9.13;;;5.05;;
20928;SDS011;21895;47.072;15.132;2023-05-10T09:10:52;9.27;;;4.60;;
20928;SDS011;21895;47.072;15.132;2023-05-10T09:13:21;6.37;;;4.32;;
20928;SDS011;21895;47.072;15.132;2023-05-10T09:15:49;11.63;;;4.93;;
20928;SDS011;21895;47.072;15.132;2023-05-10T09:18:17;6.72;;;4.50;;
20928;SDS011;21895;47.072;15.132;2023-05-10T09:20:44;10.18;;;4.60;;
20928;SDS011;21895;47.072;15.132;2023-05-10T09:23:10;13.40;;;4.28;;
20928;SDS011;21895;47.072;15.132;2023-05-10T09:25:37;6.68;;;4.20;;
20928;SDS011;21895;47.072;15.132;2023-05-10T09:28:07;8.02;;;4.97;;
20928;SDS011;21895;47.072;15.132;2023-05-10T09:30:35;6.20;;;4.20;;
20928;SDS011;21895;47.072;15.132;2023-05-10T09:33:02;8.90;;;4.28;;
20928;SDS011;21895;47.072;15.132;2023-05-10T09:35:30;10.93;;;4.28;;
20928;SDS011;21895;47.072;15.132;2023-05-10T09:38:03;7.90;;;4.22;;
20928;SDS011;21895;47.072;15.132;2023-05-10T09:40:30;6.90;;;3.70;;
20928;SDS011;21895;47.072;15.132;2023-05-10T09:42:58;7.78;;;4.65;;
20928;SDS011;21895;47.072;15.132;2023-05-10T09:45:31;8.23;;;4.18;;
20928;SDS011;21895;47.072;15.132;2023-05-10T09:48:03;10.00;;;4.10;;
20928;SDS011;21895;47.072;15.132;2023-05-10T09:50:30;5.95;;;3.17;;
20928;SDS011;21895;47.072;15.132;2023-05-10T09:52:57;5.15;;;3.67;;
20928;SDS011;21895;47.072;15.132;2023-05-10T09:55:38;11.00;;;4.22;;
20928;SDS011;21895;47.072;15.132;2023-05-10T09:58:11;6.00;;;3.12;;
20928;SDS011;21895;47.072;15.132;2023-05-10T10:00:40;10.20;;;3.58;;
20928;SDS011;21895;47.072;15.132;2023-05-10T10:03:12;11.52;;;3.47;;
20928;SDS011;21895;47.072;15.132;2023-05-10T10:05:45;5.00;;;3.42;;
20928;SDS011;21895;47.072;15.132;2023-05-10T10:08:14;9.93;;;3.85;;
20928;SDS011;21895;47.072;15.132;2023-05-10T10:10:42;6.07;;;3.80;;
20928;SDS011;21895;47.072;15.132;2023-05-10T10:13:11;8.25;;;3.20;;
20928;SDS011;21895;47.072;15.132;2023-05-10T10:15:39;9.30;;;3.30;;
20928;SDS011;21895;47.072;15.132;2023-05-10T10:18:06;4.53;;;2.92;;
20928;SDS011;21895;47.072;15.132;2023-05-10T10:20:37;7.90;;;3.30;;
20928;SDS011;21895;47.072;15.132;2023-05-10T10:23:04;11.12;;;3.65;;
20928;SDS011;21895;47.072;15.132;2023-05-10T10:25:31;8.40;;;3.30;;
20928;SDS011;21895;47.072;15.132;2023-05-10T10:28:05;6.15;;;3.10;;
20928;SDS011;21895;47.072;15.132;2023-05-10T10:30:59;6.80;;;2.95;;
20928;SDS011;21895;47.072;15.132;2023-05-10T10:34:28;8.68;;;3.22;;
20928;SDS011;21895;47.072;15.132;2023-05-10T10:36:57;3.50;;;2.62;;
20928;SDS011;21895;47.072;15.132;2023-05-10T10:39:30;6.87;;;3.00;;
20928;SDS011;21895;47.072;15.132;2023-05-10T10:41:57;9.20;;;2.72;;
20928;SDS011;21895;47.072;15.132;2023-05-10T10:44:26;8.80;;;2.90;;
20928;SDS011;21895;47.072;15.132;2023-05-10T10:50:06;4.37;;;3.00;;
20928;SDS011;21895;47.072;15.132;2023-05-10T10:52:40;8.57;;;3.28;;
20928;SDS011;21895;47.072;15.132;2023-05-10T10:55:14;9.30;;;2.97;;
20928;SDS011;21895;47.072;15.132;2023-05-10T10:57:54;6.18;;;3.03;;
20928;SDS011;21895;47.072;15.132;2023-05-10T11:00:31;11.95;;;2.83;;
20928;SDS011;21895;47.072;15.132;2023-05-10T11:03:06;4.28;;;2.60;;
20928;SDS011;21895;47.072;15.132;2023-05-10T11:05:40;4.35;;;2.58;;
20928;SDS011;21895;47.072;15.132;2023-05-10T11:08:27;3.92;;;2.35;;
20928;SDS011;21895;47.072;15.132;2023-05-10T11:11:02;5.68;;;2.53;;
20928;SDS011;21895;47.072;15.132;2023-05-10T11:13:38;4.32;;;2.75;;
20928;SDS011;21895;47.072;15.132;2023-05-10T11:16:15;7.15;;;2.87;;
20928;SDS011;21895;47.072;15.132;2023-05-10T11:19:02;5.30;;;2.72;;
20928;SDS011;21895;47.072;15.132;2023-05-10T11:21:32;8.73;;;3.10;;
20928;SDS011;21895;47.072;15.132;2023-05-10T11:24:13;9.00;;;3.08;;
20928;SDS011;21895;47.072;15.132;2023-05-10T11:26:43;3.17;;;2.50;;
20928;SDS011;21895;47.072;15.132;2023-05-10T11:29:10;6.95;;;2.78;;
20928;SDS011;21895;47.072;15.132;2023-05-10T11:31:42;5.15;;;3.17;;
20928;SDS011;21895;47.072;15.132;2023-05-10T11:34:10;4.53;;;3.22;;
20928;SDS011;21895;47.072;15.132;2023-05-10T11:36:39;4.00;;;2.62;;
20928;SDS011;21895;47.072;15.132;2023-05-10T11:39:06;4.68;;;2.58;;
20928;SDS011;21895;47.072;15.132;2023-05-10T11:41:33;5.65;;;3.20;;
20928;SDS011;21895;47.072;15.132;2023-05-10T11:43:59;4.15;;;2.40;;
20928;SDS011;21895;47.072;15.132;2023-05-10T11:46:27;3.47;;;2.67;;
20928;SDS011;21895;47.072;15.132;2023-05-10T11:49:02;2.75;;;2.10;;
20928;SDS011;21895;47.072;15.132;2023-05-10T11:51:35;4.15;;;2.47;;
20928;SDS011;21895;47.072;15.132;2023-05-10T11:54:09;3.90;;;2.60;;
20928;SDS011;21895;47.072;15.132;2023-05-10T11:56:37;4.30;;;2.55;;
20928;SDS011;21895;47.072;15.132;2023-05-10T11:59:05;4.45;;;2.65;;
20928;SDS011;21895;47.072;15.132;2023-05-10T12:01:33;4.85;;;2.70;;
20928;SDS011;21895;47.072;15.132;2023-05-10T12:04:00;5.07;;;2.42;;
20928;SDS011;21895;47.072;15.132;2023-05-10T12:06:28;3.75;;;2.90;;
20928;SDS011;21895;47.072;15.132;2023-05-10T12:08:58;6.03;;;2.60;;
20928;SDS011;21895;47.072;15.132;2023-05-10T12:11:25;3.87;;;2.45;;
20928;SDS011;21895;47.072;15.132;2023-05-10T12:13:54;5.57;;;2.70;;
20928;SDS011;21895;47.072;15.132;2023-05-10T12:16:22;6.87;;;2.60;;
20928;SDS011;21895;47.072;15.132;2023-05-10T12:18:55;4.57;;;3.20;;
20928;SDS011;21895;47.072;15.132;2023-05-10T12:21:24;5.50;;;3.05;;
20928;SDS011;21895;47.072;15.132;2023-05-10T12:23:53;4.18;;;2.60;;
20928;SDS011;21895;47.072;15.132;2023-05-10T12:26:28;4.05;;;2.00;;
20928;SDS011;21895;47.072;15.132;2023-05-10T12:28:55;3.75;;;2.20;;
20928;SDS011;21895;47.072;15.132;2023-05-10T12:31:54;4.43;;;2.12;;
20928;SDS011;21895;47.072;15.132;2023-05-10T12:34:24;2.20;;;2.00;;
20928;SDS011;21895;47.072;15.132;2023-05-10T12:37:02;4.03;;;2.15;;
20928;SDS011;21895;47.072;15.132;2023-05-10T12:39:44;3.67;;;2.40;;
20928;SDS011;21895;47.072;15.132;2023-05-10T12:42:11;4.43;;;2.00;;
20928;SDS011;21895;47.072;15.132;2023-05-10T12:44:38;2.72;;;2.17;;
20928;SDS011;21895;47.072;15.132;2023-05-10T12:47:05;2.33;;;2.05;;
20928;SDS011;21895;47.072;15.132;2023-05-10T12:49:31;4.05;;;2.70;;
20928;SDS011;21895;47.072;15.132;2023-05-10T12:51:59;5.85;;;2.65;;
20928;SDS011;21895;47.072;15.132;2023-05-10T12:54:25;5.53;;;2.65;;
20928;SDS011;21895;47.072;15.132;2023-05-10T12:56:53;3.28;;;2.67;;
20928;SDS011;21895;47.072;15.132;2023-05-10T12:59:19;7.22;;;2.20;;
20928;SDS011;21895;47.072;15.132;2023-05-10T13:01:46;4.40;;;2.45;;
20928;SDS011;21895;47.072;15.132;2023-05-10T13:04:12;4.62;;;2.70;;
20928;SDS011;21895;47.072;15.132;2023-05-10T13:06:39;5.87;;;2.80;;
20928;SDS011;21895;47.072;15.132;2023-05-10T13:09:05;5.18;;;3.35;;
20928;SDS011;21895;47.072;15.132;2023-05-10T13:11:32;6.55;;;3.53;;
20928;SDS011;21895;47.072;15.132;2023-05-10T13:13:58;6.70;;;4.87;;
20928;SDS011;21895;47.072;15.132;2023-05-10T13:16:25;4.53;;;3.35;;
20928;SDS011;21895;47.072;15.132;2023-05-10T13:18:52;4.25;;;3.47;;
20928;SDS011;21895;47.072;15.132;2023-05-10T13:21:18;5.72;;;3.78;;
20928;SDS011;21895;47.072;15.132;2023-05-10T13:23:45;8.75;;;3.30;;
20928;SDS011;21895;47.072;15.132;2023-05-10T13:26:12;5.82;;;4.40;;
20928;SDS011;21895;47.072;15.132;2023-05-10T13:28:38;5.93;;;3.83;;
20928;SDS011;21895;47.072;15.132;2023-05-10T13:31:06;5.45;;;4.15;;
20928;SDS011;21895;47.072;15.132;2023-05-10T13:33:33;5.97;;;4.43;;
20928;SDS011;21895;47.072;15.132;2023-05-10T13:35:59;8.13;;;4.22;;
20928;SDS011;21895;47.072;15.132;2023-05-10T13:38:25;6.07;;;4.43;;
20928;SDS011;21895;47.072;15.132;2023-05-10T13:40:52;5.10;;;4.25;;
20928;SDS011;21895;47.072;15.132;2023-05-10T13:43:19;6.25;;;4.90;;
20928;SDS011;21895;47.072;15.132;2023-05-10T13:45:45;7.25;;;5.18;;
20928;SDS011;21895;47.072;15.132;2023-05-10T13:48:12;6.50;;;4.70;;
20928;SDS011;21895;47.072;15.132;2023-05-10T13:50:38;9.43;;;5.82;;
20928;SDS011;21895;47.072;15.132;2023-05-10T13:53:05;8.27;;;5.40;;
20928;SDS011;21895;47.072;15.132;2023-05-10T13:55:32;8.95;;;5.28;;
20928;SDS011;21895;47.072;15.132;2023-05-10T13:57:59;8.80;;;5.85;;
20928;SDS011;21895;47.072;15.132;2023-05-10T14:00:25;8.45;;;6.18;;
20928;SDS011;21895;47.072;15.132;2023-05-10T14:02:53;8.30;;;5.70;;
20928;SDS011;21895;47.072;15.132;2023-05-10T14:05:20;8.05;;;6.10;;
20928;SDS011;21895;47.072;15.132;2023-05-10T14:07:51;11.32;;;7.28;;
20928;SDS011;21895;47.072;15.132;2023-05-10T14:10:18;11.18;;;6.37;;
20928;SDS011;21895;47.072;15.132;2023-05-10T14:12:44;10.38;;;6.15;;
20928;SDS011;21895;47.072;15.132;2023-05-10T14:15:11;9.00;;;6.10;;
20928;SDS011;21895;47.072;15.132;2023-05-10T14:17:37;10.07;;;5.37;;
20928;SDS011;21895;47.072;15.132;2023-05-10T14:20:04;11.80;;;6.37;;
20928;SDS011;21895;47.072;15.132;2023-05-10T14:22:32;10.07;;;5.87;;
20928;SDS011;21895;47.072;15.132;2023-05-10T14:24:59;11.65;;;6.47;;
20928;SDS011;21895;47.072;15.132;2023-05-10T14:27:26;8.95;;;5.97;;
20928;SDS011;21895;47.072;15.132;2023-05-10T14:29:52;9.88;;;5.60;;
20928;SDS011;21895;47.072;15.132;2023-05-10T14:32:19;8.32;;;6.40;;
20928;SDS011;21895;47.072;15.132;2023-05-10T14:34:46;8.93;;;5.70;;
20928;SDS011;21895;47.072;15.132;2023-05-10T14:37:13;9.73;;;5.93;;
20928;SDS011;21895;47.072;15.132;2023-05-10T14:39:40;11.20;;;5.82;;
20928;SDS011;21895;47.072;15.132;2023-05-10T14:42:08;8.38;;;5.68;;
20928;SDS011;21895;47.072;15.132;2023-05-10T14:44:34;11.43;;;6.20;;
20928;SDS011;21895;47.072;15.132;2023-05-10T14:47:01;9.63;;;6.70;;
20928;SDS011;21895;47.072;15.132;2023-05-10T14:49:27;11.80;;;5.60;;
20928;SDS011;21895;47.072;15.132;2023-05-10T14:51:54;9.05;;;5.68;;
20928;SDS011;21895;47.072;15.132;2023-05-10T14:54:21;8.10;;;5.82;;
20928;SDS011;21895;47.072;15.132;2023-05-10T14:56:47;6.68;;;5.45;;
20928;SDS011;21895;47.072;15.132;2023-05-10T14:59:15;11.60;;;5.82;;